sensor_id;sensor_type;location;lat;lon;timestamp;P1;durP1;ratioP1;P2;durP2;ratioP2
2406;SDS011;37709;53.480;9.688;2022-07-10T00:00:29;2.30;;;0.77;;
2406;SDS011;37709;53.480;9.688;2022-07-10T00:02:58;3.80;;;1.23;;
2406;SDS011;37709;53.480;9.688;2022-07-10T00:05:27;3.20;;;0.83;;
2406;SDS011;37709;53.480;9.688;2022-07-10T00:07:55;1.43;;;0.60;;
2406;SDS011;37709;53.480;9.688;2022-07-10T00:10:23;2.70;;;1.10;;
2406;SDS011;37709;53.480;9.688;2022-07-10T00:12:51;1.07;;;0.70;;
2406;SDS011;37709;53.480;9.688;2022-07-10T00:15:18;1.47;;;0.70;;
2406;SDS011;37709;53.480;9.688;2022-07-10T00:17:46;3.33;;;0.80;;
2406;SDS011;37709;53.480;9.688;2022-07-10T00:20:14;3.50;;;1.10;;
2406;SDS011;37709;53.480;9.688;2022-07-10T00:22:42;3.83;;;0.90;;
2406;SDS011;37709;53.480;9.688;2022-07-10T00:25:11;2.40;;;0.93;;
2406;SDS011;37709;53.480;9.688;2022-07-10T00:27:39;2.83;;;0.80;;
2406;SDS011;37709;53.480;9.688;2022-07-10T00:30:09;5.07;;;1.13;;
2406;SDS011;37709;53.480;9.688;2022-07-10T00:32:37;2.77;;;1.03;;
2406;SDS011;37709;53.480;9.688;2022-07-10T00:35:05;4.60;;;1.20;;
2406;SDS011;37709;53.480;9.688;2022-07-10T00:37:33;3.93;;;1.60;;
2406;SDS011;37709;53.480;9.688;2022-07-10T00:40:00;2.50;;;1.47;;
2406;SDS011;37709;53.480;9.688;2022-07-10T00:42:28;1.97;;;0.93;;
2406;SDS011;37709;53.480;9.688;2022-07-10T00:44:56;5.50;;;1.17;;
2406;SDS011;37709;53.480;9.688;2022-07-10T00:47:23;2.50;;;0.97;;
2406;SDS011;37709;53.480;9.688;2022-07-10T00:49:51;2.50;;;1.10;;
2406;SDS011;37709;53.480;9.688;2022-07-10T00:52:18;2.50;;;1.17;;
2406;SDS011;37709;53.480;9.688;2022-07-10T00:54:47;1.30;;;1.00;;
2406;SDS011;37709;53.480;9.688;2022-07-10T00:57:18;2.33;;;1.20;;
2406;SDS011;37709;53.480;9.688;2022-07-10T00:59:47;4.40;;;0.87;;
2406;SDS011;37709;53.480;9.688;2022-07-10T01:02:16;5.00;;;1.23;;
2406;SDS011;37709;53.480;9.688;2022-07-10T01:04:44;4.33;;;1.23;;
2406;SDS011;37709;53.480;9.688;2022-07-10T01:07:12;4.37;;;1.30;;
2406;SDS011;37709;53.480;9.688;2022-07-10T01:09:42;2.77;;;1.10;;
2406;SDS011;37709;53.480;9.688;2022-07-10T01:12:11;2.70;;;0.80;;
2406;SDS011;37709;53.480;9.688;2022-07-10T01:14:39;4.33;;;1.20;;
2406;SDS011;37709;53.480;9.688;2022-07-10T01:17:08;3.17;;;0.90;;
2406;SDS011;37709;53.480;9.688;2022-07-10T01:19:36;2.10;;;1.00;;
2406;SDS011;37709;53.480;9.688;2022-07-10T01:22:03;5.00;;;1.23;;
2406;SDS011;37709;53.480;9.688;2022-07-10T01:24:31;2.80;;;1.10;;
2406;SDS011;37709;53.480;9.688;2022-07-10T01:26:59;4.83;;;1.10;;
2406;SDS011;37709;53.480;9.688;2022-07-10T01:29:26;2.47;;;1.10;;
2406;SDS011;37709;53.480;9.688;2022-07-10T01:31:55;4.03;;;1.43;;
2406;SDS011;37709;53.480;9.688;2022-07-10T01:34:23;4.60;;;1.20;;
2406;SDS011;37709;53.480;9.688;2022-07-10T01:36:51;7.20;;;1.30;;
2406;SDS011;37709;53.480;9.688;2022-07-10T01:39:18;7.33;;;1.40;;
2406;SDS011;37709;53.480;9.688;2022-07-10T01:41:46;6.30;;;1.30;;
2406;SDS011;37709;53.480;9.688;2022-07-10T01:44:14;4.30;;;1.17;;
2406;SDS011;37709;53.480;9.688;2022-07-10T01:46:45;4.37;;;1.70;;
2406;SDS011;37709;53.480;9.688;2022-07-10T01:49:14;8.23;;;1.60;;
2406;SDS011;37709;53.480;9.688;2022-07-10T01:51:41;6.13;;;1.50;;
2406;SDS011;37709;53.480;9.688;2022-07-10T01:54:10;5.40;;;1.20;;
2406;SDS011;37709;53.480;9.688;2022-07-10T01:56:37;1.87;;;1.00;;
2406;SDS011;37709;53.480;9.688;2022-07-10T01:59:05;6.43;;;1.53;;
2406;SDS011;37709;53.480;9.688;2022-07-10T02:01:32;3.80;;;0.93;;
2406;SDS011;37709;53.480;9.688;2022-07-10T02:04:00;4.10;;;2.07;;
2406;SDS011;37709;53.480;9.688;2022-07-10T02:06:46;2.23;;;0.93;;
2406;SDS011;37709;53.480;9.688;2022-07-10T02:09:13;3.00;;;1.20;;
2406;SDS011;37709;53.480;9.688;2022-07-10T02:11:42;5.00;;;1.70;;
2406;SDS011;37709;53.480;9.688;2022-07-10T02:14:10;5.27;;;1.30;;
2406;SDS011;37709;53.480;9.688;2022-07-10T02:16:39;4.80;;;1.33;;
2406;SDS011;37709;53.480;9.688;2022-07-10T02:19:07;2.47;;;1.20;;
2406;SDS011;37709;53.480;9.688;2022-07-10T02:21:34;7.80;;;1.57;;
2406;SDS011;37709;53.480;9.688;2022-07-10T02:24:02;3.23;;;1.20;;
2406;SDS011;37709;53.480;9.688;2022-07-10T02:26:29;5.70;;;1.87;;
2406;SDS011;37709;53.480;9.688;2022-07-10T02:28:57;5.97;;;1.40;;
2406;SDS011;37709;53.480;9.688;2022-07-10T02:31:24;3.00;;;1.87;;
2406;SDS011;37709;53.480;9.688;2022-07-10T02:33:52;7.97;;;1.50;;
2406;SDS011;37709;53.480;9.688;2022-07-10T02:36:19;3.50;;;1.47;;
2406;SDS011;37709;53.480;9.688;2022-07-10T02:38:47;3.40;;;1.67;;
2406;SDS011;37709;53.480;9.688;2022-07-10T02:41:14;3.47;;;1.27;;
2406;SDS011;37709;53.480;9.688;2022-07-10T02:43:42;5.80;;;1.30;;
2406;SDS011;37709;53.480;9.688;2022-07-10T02:46:09;4.40;;;1.93;;
2406;SDS011;37709;53.480;9.688;2022-07-10T02:48:37;5.17;;;1.70;;
2406;SDS011;37709;53.480;9.688;2022-07-10T02:51:05;2.60;;;1.40;;
2406;SDS011;37709;53.480;9.688;2022-07-10T02:53:32;3.03;;;1.50;;
2406;SDS011;37709;53.480;9.688;2022-07-10T02:56:00;6.43;;;1.63;;
2406;SDS011;37709;53.480;9.688;2022-07-10T02:58:27;5.50;;;1.80;;
2406;SDS011;37709;53.480;9.688;2022-07-10T03:00:55;3.90;;;1.97;;
2406;SDS011;37709;53.480;9.688;2022-07-10T03:03:23;4.40;;;1.20;;
2406;SDS011;37709;53.480;9.688;2022-07-10T03:05:50;5.27;;;1.60;;
2406;SDS011;37709;53.480;9.688;2022-07-10T03:08:18;6.87;;;1.80;;
2406;SDS011;37709;53.480;9.688;2022-07-10T03:10:45;2.43;;;1.57;;
2406;SDS011;37709;53.480;9.688;2022-07-10T03:13:12;4.93;;;1.97;;
2406;SDS011;37709;53.480;9.688;2022-07-10T03:15:40;6.27;;;1.80;;
2406;SDS011;37709;53.480;9.688;2022-07-10T03:18:07;7.67;;;1.80;;
2406;SDS011;37709;53.480;9.688;2022-07-10T03:20:35;5.10;;;1.87;;
2406;SDS011;37709;53.480;9.688;2022-07-10T03:23:03;5.57;;;1.97;;
2406;SDS011;37709;53.480;9.688;2022-07-10T03:25:30;5.10;;;2.50;;
2406;SDS011;37709;53.480;9.688;2022-07-10T03:27:58;3.13;;;1.70;;
2406;SDS011;37709;53.480;9.688;2022-07-10T03:30:25;6.07;;;2.10;;
2406;SDS011;37709;53.480;9.688;2022-07-10T03:32:53;7.97;;;2.40;;
2406;SDS011;37709;53.480;9.688;2022-07-10T03:35:20;4.60;;;1.80;;
2406;SDS011;37709;53.480;9.688;2022-07-10T03:37:48;6.53;;;2.20;;
2406;SDS011;37709;53.480;9.688;2022-07-10T03:40:15;8.17;;;2.87;;
2406;SDS011;37709;53.480;9.688;2022-07-10T03:42:42;7.73;;;2.10;;
2406;SDS011;37709;53.480;9.688;2022-07-10T03:45:10;5.03;;;1.80;;
2406;SDS011;37709;53.480;9.688;2022-07-10T03:47:37;8.63;;;2.30;;
2406;SDS011;37709;53.480;9.688;2022-07-10T03:50:05;5.30;;;1.90;;
2406;SDS011;37709;53.480;9.688;2022-07-10T03:52:33;7.90;;;2.23;;
2406;SDS011;37709;53.480;9.688;2022-07-10T03:55:00;13.17;;;3.10;;
2406;SDS011;37709;53.480;9.688;2022-07-10T03:57:29;5.67;;;2.20;;
2406;SDS011;37709;53.480;9.688;2022-07-10T04:00:15;3.33;;;1.80;;
2406;SDS011;37709;53.480;9.688;2022-07-10T04:02:42;7.00;;;2.03;;
2406;SDS011;37709;53.480;9.688;2022-07-10T04:05:10;7.03;;;2.50;;
2406;SDS011;37709;53.480;9.688;2022-07-10T04:07:37;6.60;;;2.67;;
2406;SDS011;37709;53.480;9.688;2022-07-10T04:10:05;7.80;;;2.60;;
2406;SDS011;37709;53.480;9.688;2022-07-10T04:12:33;9.17;;;2.60;;
2406;SDS011;37709;53.480;9.688;2022-07-10T04:15:00;7.63;;;2.53;;
2406;SDS011;37709;53.480;9.688;2022-07-10T04:17:28;8.17;;;2.43;;
2406;SDS011;37709;53.480;9.688;2022-07-10T04:19:56;6.10;;;2.67;;
2406;SDS011;37709;53.480;9.688;2022-07-10T04:22:23;5.77;;;1.97;;
2406;SDS011;37709;53.480;9.688;2022-07-10T04:24:50;7.73;;;2.47;;
2406;SDS011;37709;53.480;9.688;2022-07-10T04:27:18;6.30;;;2.57;;
2406;SDS011;37709;53.480;9.688;2022-07-10T04:29:46;7.17;;;2.53;;
2406;SDS011;37709;53.480;9.688;2022-07-10T04:32:15;6.10;;;2.50;;
2406;SDS011;37709;53.480;9.688;2022-07-10T04:34:42;10.20;;;2.27;;
2406;SDS011;37709;53.480;9.688;2022-07-10T04:37:10;6.40;;;2.37;;
2406;SDS011;37709;53.480;9.688;2022-07-10T04:39:38;4.57;;;2.10;;
2406;SDS011;37709;53.480;9.688;2022-07-10T04:42:06;6.30;;;2.57;;
2406;SDS011;37709;53.480;9.688;2022-07-10T04:44:35;9.23;;;2.57;;
2406;SDS011;37709;53.480;9.688;2022-07-10T04:47:03;5.40;;;2.30;;
2406;SDS011;37709;53.480;9.688;2022-07-10T04:49:33;7.70;;;2.60;;
2406;SDS011;37709;53.480;9.688;2022-07-10T04:52:01;9.67;;;2.83;;
2406;SDS011;37709;53.480;9.688;2022-07-10T04:54:29;7.00;;;2.10;;
2406;SDS011;37709;53.480;9.688;2022-07-10T04:56:57;5.10;;;2.40;;
2406;SDS011;37709;53.480;9.688;2022-07-10T04:59:24;6.40;;;2.10;;
2406;SDS011;37709;53.480;9.688;2022-07-10T05:01:51;9.40;;;3.40;;
2406;SDS011;37709;53.480;9.688;2022-07-10T05:04:19;7.40;;;2.60;;
2406;SDS011;37709;53.480;9.688;2022-07-10T05:06:47;11.70;;;3.40;;
2406;SDS011;37709;53.480;9.688;2022-07-10T05:09:15;11.23;;;2.93;;
2406;SDS011;37709;53.480;9.688;2022-07-10T05:11:42;12.90;;;4.17;;
2406;SDS011;37709;53.480;9.688;2022-07-10T05:14:09;8.47;;;2.50;;
2406;SDS011;37709;53.480;9.688;2022-07-10T05:16:37;8.60;;;3.03;;
2406;SDS011;37709;53.480;9.688;2022-07-10T05:19:04;12.10;;;3.07;;
2406;SDS011;37709;53.480;9.688;2022-07-10T05:21:32;9.63;;;2.63;;
2406;SDS011;37709;53.480;9.688;2022-07-10T05:24:00;7.63;;;2.60;;
2406;SDS011;37709;53.480;9.688;2022-07-10T05:26:27;7.77;;;2.80;;
2406;SDS011;37709;53.480;9.688;2022-07-10T05:28:55;5.57;;;2.63;;
2406;SDS011;37709;53.480;9.688;2022-07-10T05:31:22;8.80;;;2.80;;
2406;SDS011;37709;53.480;9.688;2022-07-10T05:33:50;5.43;;;2.23;;
2406;SDS011;37709;53.480;9.688;2022-07-10T05:36:18;5.70;;;2.60;;
2406;SDS011;37709;53.480;9.688;2022-07-10T05:38:45;10.83;;;2.57;;
2406;SDS011;37709;53.480;9.688;2022-07-10T05:41:13;6.70;;;2.73;;
2406;SDS011;37709;53.480;9.688;2022-07-10T05:43:40;6.87;;;2.70;;
2406;SDS011;37709;53.480;9.688;2022-07-10T05:46:07;10.23;;;2.80;;
2406;SDS011;37709;53.480;9.688;2022-07-10T05:48:35;5.33;;;2.13;;
2406;SDS011;37709;53.480;9.688;2022-07-10T05:51:06;7.67;;;2.30;;
2406;SDS011;37709;53.480;9.688;2022-07-10T05:53:53;9.07;;;3.00;;
2406;SDS011;37709;53.480;9.688;2022-07-10T05:56:21;4.93;;;1.73;;
2406;SDS011;37709;53.480;9.688;2022-07-10T05:58:48;8.07;;;2.27;;
2406;SDS011;37709;53.480;9.688;2022-07-10T06:01:16;10.33;;;2.33;;
2406;SDS011;37709;53.480;9.688;2022-07-10T06:03:44;5.47;;;1.90;;
2406;SDS011;37709;53.480;9.688;2022-07-10T06:06:12;10.37;;;2.33;;
2406;SDS011;37709;53.480;9.688;2022-07-10T06:08:43;6.20;;;2.47;;
2406;SDS011;37709;53.480;9.688;2022-07-10T06:11:11;6.13;;;1.60;;
2406;SDS011;37709;53.480;9.688;2022-07-10T06:13:40;6.70;;;2.57;;
2406;SDS011;37709;53.480;9.688;2022-07-10T06:16:08;8.53;;;2.20;;
2406;SDS011;37709;53.480;9.688;2022-07-10T06:18:35;10.53;;;2.90;;
2406;SDS011;37709;53.480;9.688;2022-07-10T06:21:03;7.30;;;1.80;;
2406;SDS011;37709;53.480;9.688;2022-07-10T06:23:31;10.00;;;2.37;;
2406;SDS011;37709;53.480;9.688;2022-07-10T06:25:59;4.03;;;1.60;;
2406;SDS011;37709;53.480;9.688;2022-07-10T06:28:26;10.57;;;2.40;;
2406;SDS011;37709;53.480;9.688;2022-07-10T06:30:54;5.77;;;2.03;;
2406;SDS011;37709;53.480;9.688;2022-07-10T06:33:26;7.17;;;2.30;;
2406;SDS011;37709;53.480;9.688;2022-07-10T06:35:54;6.23;;;2.33;;
2406;SDS011;37709;53.480;9.688;2022-07-10T06:38:21;9.07;;;2.60;;
2406;SDS011;37709;53.480;9.688;2022-07-10T06:40:50;7.63;;;2.13;;
2406;SDS011;37709;53.480;9.688;2022-07-10T06:43:18;6.40;;;1.47;;
2406;SDS011;37709;53.480;9.688;2022-07-10T06:45:46;6.70;;;2.63;;
2406;SDS011;37709;53.480;9.688;2022-07-10T06:48:15;7.83;;;1.90;;
2406;SDS011;37709;53.480;9.688;2022-07-10T06:50:43;6.87;;;2.37;;
2406;SDS011;37709;53.480;9.688;2022-07-10T06:53:11;8.67;;;1.97;;
2406;SDS011;37709;53.480;9.688;2022-07-10T06:55:38;3.67;;;1.60;;
2406;SDS011;37709;53.480;9.688;2022-07-10T06:58:06;6.30;;;1.97;;
2406;SDS011;37709;53.480;9.688;2022-07-10T07:00:33;5.80;;;2.00;;
2406;SDS011;37709;53.480;9.688;2022-07-10T07:03:01;6.30;;;1.63;;
2406;SDS011;37709;53.480;9.688;2022-07-10T07:05:30;9.87;;;2.63;;
2406;SDS011;37709;53.480;9.688;2022-07-10T07:07:58;2.30;;;1.50;;
2406;SDS011;37709;53.480;9.688;2022-07-10T07:10:25;7.30;;;1.97;;
2406;SDS011;37709;53.480;9.688;2022-07-10T07:12:53;7.37;;;2.30;;
2406;SDS011;37709;53.480;9.688;2022-07-10T07:15:21;5.87;;;1.50;;
2406;SDS011;37709;53.480;9.688;2022-07-10T07:17:50;3.17;;;1.60;;
2406;SDS011;37709;53.480;9.688;2022-07-10T07:20:35;6.20;;;1.63;;
2406;SDS011;37709;53.480;9.688;2022-07-10T07:23:21;6.07;;;1.73;;
2406;SDS011;37709;53.480;9.688;2022-07-10T07:25:49;7.93;;;1.90;;
2406;SDS011;37709;53.480;9.688;2022-07-10T07:28:18;6.00;;;1.80;;
2406;SDS011;37709;53.480;9.688;2022-07-10T07:30:46;5.50;;;1.60;;
2406;SDS011;37709;53.480;9.688;2022-07-10T07:33:15;4.20;;;1.73;;
2406;SDS011;37709;53.480;9.688;2022-07-10T07:35:42;2.13;;;1.10;;
2406;SDS011;37709;53.480;9.688;2022-07-10T07:38:10;4.23;;;1.47;;
2406;SDS011;37709;53.480;9.688;2022-07-10T07:40:39;7.97;;;1.57;;
2406;SDS011;37709;53.480;9.688;2022-07-10T07:43:06;3.80;;;1.50;;
2406;SDS011;37709;53.480;9.688;2022-07-10T07:45:34;4.10;;;1.63;;
2406;SDS011;37709;53.480;9.688;2022-07-10T07:48:02;3.40;;;1.20;;
2406;SDS011;37709;53.480;9.688;2022-07-10T07:50:31;4.43;;;1.57;;
2406;SDS011;37709;53.480;9.688;2022-07-10T07:53:00;4.50;;;1.67;;
2406;SDS011;37709;53.480;9.688;2022-07-10T07:55:29;5.93;;;1.93;;
2406;SDS011;37709;53.480;9.688;2022-07-10T07:58:02;3.97;;;1.67;;
2406;SDS011;37709;53.480;9.688;2022-07-10T08:00:31;8.83;;;2.23;;
2406;SDS011;37709;53.480;9.688;2022-07-10T08:02:59;3.70;;;1.40;;
2406;SDS011;37709;53.480;9.688;2022-07-10T08:05:28;6.00;;;1.57;;
2406;SDS011;37709;53.480;9.688;2022-07-10T08:07:57;4.27;;;1.30;;
2406;SDS011;37709;53.480;9.688;2022-07-10T08:10:28;5.27;;;1.63;;
2406;SDS011;37709;53.480;9.688;2022-07-10T08:12:56;3.43;;;1.33;;
2406;SDS011;37709;53.480;9.688;2022-07-10T08:15:24;5.17;;;1.23;;
2406;SDS011;37709;53.480;9.688;2022-07-10T08:17:55;6.33;;;1.60;;
2406;SDS011;37709;53.480;9.688;2022-07-10T08:20:25;4.87;;;1.53;;
2406;SDS011;37709;53.480;9.688;2022-07-10T08:22:53;5.60;;;2.20;;
2406;SDS011;37709;53.480;9.688;2022-07-10T08:25:26;4.37;;;1.50;;
2406;SDS011;37709;53.480;9.688;2022-07-10T08:27:54;6.13;;;1.70;;
2406;SDS011;37709;53.480;9.688;2022-07-10T08:30:26;5.07;;;1.20;;
2406;SDS011;37709;53.480;9.688;2022-07-10T08:32:53;6.00;;;1.37;;
2406;SDS011;37709;53.480;9.688;2022-07-10T08:35:21;3.77;;;1.50;;
2406;SDS011;37709;53.480;9.688;2022-07-10T08:37:48;4.77;;;1.67;;
2406;SDS011;37709;53.480;9.688;2022-07-10T08:40:16;4.33;;;1.37;;
2406;SDS011;37709;53.480;9.688;2022-07-10T08:42:45;5.03;;;1.60;;
2406;SDS011;37709;53.480;9.688;2022-07-10T08:45:13;3.37;;;0.87;;
2406;SDS011;37709;53.480;9.688;2022-07-10T08:47:41;4.30;;;1.40;;
2406;SDS011;37709;53.480;9.688;2022-07-10T08:55:39;4.30;;;1.40;;
2406;SDS011;37709;53.480;9.688;2022-07-10T08:58:08;3.53;;;1.07;;
2406;SDS011;37709;53.480;9.688;2022-07-10T09:00:40;3.27;;;1.30;;
2406;SDS011;37709;53.480;9.688;2022-07-10T09:03:08;3.97;;;1.43;;
2406;SDS011;37709;53.480;9.688;2022-07-10T09:05:36;4.87;;;1.53;;
2406;SDS011;37709;53.480;9.688;2022-07-10T09:08:04;2.20;;;1.10;;
2406;SDS011;37709;53.480;9.688;2022-07-10T09:10:47;4.63;;;1.40;;
2406;SDS011;37709;53.480;9.688;2022-07-10T09:13:19;4.70;;;1.60;;
2406;SDS011;37709;53.480;9.688;2022-07-10T09:15:48;4.80;;;1.20;;
2406;SDS011;37709;53.480;9.688;2022-07-10T09:18:18;5.43;;;1.27;;
2406;SDS011;37709;53.480;9.688;2022-07-10T09:20:48;3.87;;;1.30;;
2406;SDS011;37709;53.480;9.688;2022-07-10T09:23:17;5.70;;;1.53;;
2406;SDS011;37709;53.480;9.688;2022-07-10T09:25:47;3.53;;;1.20;;
2406;SDS011;37709;53.480;9.688;2022-07-10T09:28:19;4.10;;;1.50;;
2406;SDS011;37709;53.480;9.688;2022-07-10T09:30:47;7.57;;;1.53;;
2406;SDS011;37709;53.480;9.688;2022-07-10T09:33:23;5.33;;;1.33;;
2406;SDS011;37709;53.480;9.688;2022-07-10T09:36:12;5.17;;;1.20;;
2406;SDS011;37709;53.480;9.688;2022-07-10T09:41:11;4.10;;;1.07;;
2406;SDS011;37709;53.480;9.688;2022-07-10T09:43:52;3.40;;;1.20;;
2406;SDS011;37709;53.480;9.688;2022-07-10T09:46:31;2.87;;;1.30;;
2406;SDS011;37709;53.480;9.688;2022-07-10T09:51:36;3.93;;;1.23;;
2406;SDS011;37709;53.480;9.688;2022-07-10T09:54:14;3.27;;;1.30;;
2406;SDS011;37709;53.480;9.688;2022-07-10T09:56:43;4.20;;;1.30;;
2406;SDS011;37709;53.480;9.688;2022-07-10T09:59:21;2.60;;;1.10;;
2406;SDS011;37709;53.480;9.688;2022-07-10T10:01:50;6.63;;;1.60;;
2406;SDS011;37709;53.480;9.688;2022-07-10T10:04:19;4.30;;;1.50;;
2406;SDS011;37709;53.480;9.688;2022-07-10T10:06:52;3.90;;;1.03;;
2406;SDS011;37709;53.480;9.688;2022-07-10T10:11:57;5.60;;;2.03;;
2406;SDS011;37709;53.480;9.688;2022-07-10T10:14:31;2.47;;;1.43;;
2406;SDS011;37709;53.480;9.688;2022-07-10T10:17:00;4.40;;;1.37;;
2406;SDS011;37709;53.480;9.688;2022-07-10T10:19:29;3.50;;;1.00;;
2406;SDS011;37709;53.480;9.688;2022-07-10T10:22:17;6.30;;;1.60;;
2406;SDS011;37709;53.480;9.688;2022-07-10T10:24:46;3.53;;;1.20;;
2406;SDS011;37709;53.480;9.688;2022-07-10T10:27:14;3.27;;;1.40;;
2406;SDS011;37709;53.480;9.688;2022-07-10T10:29:42;3.27;;;1.30;;
2406;SDS011;37709;53.480;9.688;2022-07-10T10:32:11;4.70;;;1.57;;
2406;SDS011;37709;53.480;9.688;2022-07-10T10:34:48;5.37;;;1.70;;
2406;SDS011;37709;53.480;9.688;2022-07-10T10:40:05;5.63;;;1.83;;
2406;SDS011;37709;53.480;9.688;2022-07-10T10:42:35;4.30;;;2.00;;
2406;SDS011;37709;53.480;9.688;2022-07-10T10:48:06;5.80;;;1.93;;
2406;SDS011;37709;53.480;9.688;2022-07-10T10:50:55;9.80;;;5.13;;
2406;SDS011;37709;53.480;9.688;2022-07-10T10:53:27;3.93;;;1.50;;
2406;SDS011;37709;53.480;9.688;2022-07-10T10:58:38;5.43;;;1.97;;
2406;SDS011;37709;53.480;9.688;2022-07-10T11:06:51;3.40;;;1.30;;
2406;SDS011;37709;53.480;9.688;2022-07-10T11:09:27;3.97;;;1.00;;
2406;SDS011;37709;53.480;9.688;2022-07-10T11:14:34;2.70;;;1.30;;
2406;SDS011;37709;53.480;9.688;2022-07-10T11:17:12;2.93;;;1.00;;
2406;SDS011;37709;53.480;9.688;2022-07-10T11:19:40;2.20;;;0.90;;
2406;SDS011;37709;53.480;9.688;2022-07-10T11:22:11;4.43;;;1.43;;
2406;SDS011;37709;53.480;9.688;2022-07-10T11:25:25;3.50;;;1.30;;
2406;SDS011;37709;53.480;9.688;2022-07-10T11:31:22;3.27;;;1.40;;
2406;SDS011;37709;53.480;9.688;2022-07-10T11:33:54;2.03;;;0.80;;
2406;SDS011;37709;53.480;9.688;2022-07-10T11:36:23;2.30;;;1.00;;
2406;SDS011;37709;53.480;9.688;2022-07-10T11:39:10;4.17;;;1.43;;
2406;SDS011;37709;53.480;9.688;2022-07-10T11:41:42;5.03;;;1.40;;
2406;SDS011;37709;53.480;9.688;2022-07-10T11:44:15;6.23;;;1.20;;
2406;SDS011;37709;53.480;9.688;2022-07-10T11:46:44;2.93;;;1.33;;
2406;SDS011;37709;53.480;9.688;2022-07-10T11:49:15;3.50;;;1.40;;
2406;SDS011;37709;53.480;9.688;2022-07-10T11:51:44;3.93;;;1.60;;
2406;SDS011;37709;53.480;9.688;2022-07-10T11:56:47;3.80;;;1.37;;
2406;SDS011;37709;53.480;9.688;2022-07-10T11:59:15;4.10;;;1.20;;
2406;SDS011;37709;53.480;9.688;2022-07-10T12:01:45;4.10;;;1.20;;
2406;SDS011;37709;53.480;9.688;2022-07-10T12:04:16;5.07;;;1.20;;
2406;SDS011;37709;53.480;9.688;2022-07-10T12:06:47;2.83;;;1.10;;
2406;SDS011;37709;53.480;9.688;2022-07-10T12:09:16;2.97;;;1.00;;
2406;SDS011;37709;53.480;9.688;2022-07-10T12:11:57;4.47;;;1.30;;
2406;SDS011;37709;53.480;9.688;2022-07-10T12:14:29;3.27;;;1.17;;
2406;SDS011;37709;53.480;9.688;2022-07-10T12:16:57;2.53;;;0.97;;
2406;SDS011;37709;53.480;9.688;2022-07-10T12:19:30;3.40;;;1.00;;
2406;SDS011;37709;53.480;9.688;2022-07-10T12:22:04;7.17;;;1.50;;
2406;SDS011;37709;53.480;9.688;2022-07-10T12:24:32;3.80;;;1.23;;
2406;SDS011;37709;53.480;9.688;2022-07-10T12:27:00;4.30;;;1.50;;
2406;SDS011;37709;53.480;9.688;2022-07-10T12:29:29;4.37;;;1.00;;
2406;SDS011;37709;53.480;9.688;2022-07-10T12:32:00;3.80;;;1.37;;
2406;SDS011;37709;53.480;9.688;2022-07-10T12:34:39;5.40;;;1.30;;
2406;SDS011;37709;53.480;9.688;2022-07-10T12:37:10;5.40;;;1.40;;
2406;SDS011;37709;53.480;9.688;2022-07-10T12:39:54;3.57;;;1.20;;
2406;SDS011;37709;53.480;9.688;2022-07-10T12:42:31;2.43;;;1.10;;
2406;SDS011;37709;53.480;9.688;2022-07-10T12:45:12;2.90;;;1.27;;
2406;SDS011;37709;53.480;9.688;2022-07-10T12:47:45;2.00;;;1.07;;
2406;SDS011;37709;53.480;9.688;2022-07-10T12:50:14;4.23;;;1.53;;
2406;SDS011;37709;53.480;9.688;2022-07-10T12:52:45;3.60;;;1.10;;
2406;SDS011;37709;53.480;9.688;2022-07-10T12:55:14;2.90;;;1.23;;
2406;SDS011;37709;53.480;9.688;2022-07-10T12:57:47;3.70;;;1.33;;
2406;SDS011;37709;53.480;9.688;2022-07-10T13:00:23;4.80;;;1.30;;
2406;SDS011;37709;53.480;9.688;2022-07-10T13:02:58;4.27;;;1.40;;
2406;SDS011;37709;53.480;9.688;2022-07-10T13:05:33;5.00;;;1.73;;
2406;SDS011;37709;53.480;9.688;2022-07-10T13:10:48;6.50;;;1.80;;
2406;SDS011;37709;53.480;9.688;2022-07-10T13:13:17;7.23;;;1.30;;
2406;SDS011;37709;53.480;9.688;2022-07-10T13:15:44;6.00;;;1.90;;
2406;SDS011;37709;53.480;9.688;2022-07-10T13:18:21;3.83;;;1.23;;
2406;SDS011;37709;53.480;9.688;2022-07-10T13:20:54;3.33;;;1.30;;
2406;SDS011;37709;53.480;9.688;2022-07-10T13:23:27;4.40;;;1.23;;
2406;SDS011;37709;53.480;9.688;2022-07-10T13:25:55;6.07;;;1.40;;
2406;SDS011;37709;53.480;9.688;2022-07-10T13:28:24;3.73;;;1.37;;
2406;SDS011;37709;53.480;9.688;2022-07-10T13:30:52;3.30;;;1.20;;
2406;SDS011;37709;53.480;9.688;2022-07-10T13:33:19;4.63;;;1.40;;
2406;SDS011;37709;53.480;9.688;2022-07-10T13:35:47;3.60;;;1.40;;
2406;SDS011;37709;53.480;9.688;2022-07-10T13:38:15;4.90;;;1.57;;
2406;SDS011;37709;53.480;9.688;2022-07-10T13:40:46;2.77;;;1.17;;
2406;SDS011;37709;53.480;9.688;2022-07-10T13:43:14;4.27;;;1.10;;
2406;SDS011;37709;53.480;9.688;2022-07-10T13:45:46;5.70;;;1.53;;
2406;SDS011;37709;53.480;9.688;2022-07-10T13:48:14;8.13;;;5.20;;
2406;SDS011;37709;53.480;9.688;2022-07-10T13:50:43;6.40;;;3.00;;
2406;SDS011;37709;53.480;9.688;2022-07-10T13:53:14;9.13;;;6.40;;
2406;SDS011;37709;53.480;9.688;2022-07-10T13:55:42;10.80;;;8.77;;
2406;SDS011;37709;53.480;9.688;2022-07-10T13:58:10;6.07;;;3.17;;
2406;SDS011;37709;53.480;9.688;2022-07-10T14:00:38;5.27;;;3.13;;
2406;SDS011;37709;53.480;9.688;2022-07-10T14:03:05;5.73;;;2.77;;
2406;SDS011;37709;53.480;9.688;2022-07-10T14:05:34;7.40;;;4.17;;
2406;SDS011;37709;53.480;9.688;2022-07-10T14:08:02;3.87;;;2.07;;
2406;SDS011;37709;53.480;9.688;2022-07-10T14:10:29;5.30;;;1.73;;
2406;SDS011;37709;53.480;9.688;2022-07-10T14:12:57;5.73;;;2.30;;
2406;SDS011;37709;53.480;9.688;2022-07-10T14:15:25;9.77;;;6.70;;
2406;SDS011;37709;53.480;9.688;2022-07-10T14:17:53;5.53;;;3.03;;
2406;SDS011;37709;53.480;9.688;2022-07-10T14:20:22;3.90;;;1.40;;
2406;SDS011;37709;53.480;9.688;2022-07-10T14:22:50;7.57;;;2.00;;
2406;SDS011;37709;53.480;9.688;2022-07-10T14:25:18;3.67;;;1.53;;
2406;SDS011;37709;53.480;9.688;2022-07-10T14:27:52;5.30;;;1.77;;
2406;SDS011;37709;53.480;9.688;2022-07-10T14:30:19;5.60;;;1.90;;
2406;SDS011;37709;53.480;9.688;2022-07-10T14:32:47;2.80;;;1.70;;
2406;SDS011;37709;53.480;9.688;2022-07-10T14:35:14;3.47;;;1.60;;
2406;SDS011;37709;53.480;9.688;2022-07-10T14:37:41;7.37;;;1.67;;
2406;SDS011;37709;53.480;9.688;2022-07-10T14:40:10;7.20;;;2.90;;
2406;SDS011;37709;53.480;9.688;2022-07-10T14:42:38;7.03;;;2.70;;
2406;SDS011;37709;53.480;9.688;2022-07-10T14:45:06;4.60;;;2.20;;
2406;SDS011;37709;53.480;9.688;2022-07-10T14:47:50;6.30;;;2.60;;
2406;SDS011;37709;53.480;9.688;2022-07-10T14:50:17;4.33;;;1.90;;
2406;SDS011;37709;53.480;9.688;2022-07-10T14:52:45;6.43;;;3.70;;
2406;SDS011;37709;53.480;9.688;2022-07-10T14:55:13;4.83;;;1.57;;
2406;SDS011;37709;53.480;9.688;2022-07-10T14:57:40;3.73;;;1.27;;
2406;SDS011;37709;53.480;9.688;2022-07-10T15:00:08;2.27;;;0.90;;
2406;SDS011;37709;53.480;9.688;2022-07-10T15:02:36;3.40;;;1.07;;
2406;SDS011;37709;53.480;9.688;2022-07-10T15:05:03;3.67;;;1.73;;
2406;SDS011;37709;53.480;9.688;2022-07-10T15:07:31;3.57;;;1.07;;
2406;SDS011;37709;53.480;9.688;2022-07-10T15:09:58;2.20;;;0.90;;
2406;SDS011;37709;53.480;9.688;2022-07-10T15:12:26;3.67;;;1.30;;
2406;SDS011;37709;53.480;9.688;2022-07-10T15:14:53;2.57;;;1.33;;
2406;SDS011;37709;53.480;9.688;2022-07-10T15:17:20;2.77;;;1.00;;
2406;SDS011;37709;53.480;9.688;2022-07-10T15:19:48;5.37;;;1.43;;
2406;SDS011;37709;53.480;9.688;2022-07-10T15:22:16;4.30;;;1.23;;
2406;SDS011;37709;53.480;9.688;2022-07-10T15:24:44;2.50;;;0.80;;
2406;SDS011;37709;53.480;9.688;2022-07-10T15:27:12;5.00;;;1.10;;
2406;SDS011;37709;53.480;9.688;2022-07-10T15:29:40;3.80;;;1.40;;
2406;SDS011;37709;53.480;9.688;2022-07-10T15:32:08;4.80;;;1.60;;
2406;SDS011;37709;53.480;9.688;2022-07-10T15:34:37;6.00;;;2.20;;
2406;SDS011;37709;53.480;9.688;2022-07-10T15:37:05;4.43;;;1.40;;
2406;SDS011;37709;53.480;9.688;2022-07-10T15:39:33;3.73;;;1.47;;
2406;SDS011;37709;53.480;9.688;2022-07-10T15:42:09;4.20;;;1.40;;
2406;SDS011;37709;53.480;9.688;2022-07-10T15:44:37;4.27;;;1.30;;
2406;SDS011;37709;53.480;9.688;2022-07-10T15:47:05;4.97;;;1.00;;
2406;SDS011;37709;53.480;9.688;2022-07-10T15:49:32;5.23;;;1.23;;
2406;SDS011;37709;53.480;9.688;2022-07-10T15:52:00;4.50;;;1.43;;